Decoded Metar for SANT (TUCUMAN in ARGENTINA) (IATA:TUC) | Meteo·Mobile Aviation Weather
aviador You're here:

SANT Decoded Metar

TUCUMAN in ARGENTINA
Report Time2018-09-18 15:00:00
UTC Time2018-09-18 16:00:59
Flight Rules mvfr MVFR
WindCalm
Visibility7000 m
Phenomena:N/A
Clouds:N/A
Expected CloudBase > 5,600 ft AGL from Temp-Dew spread
CeilingNone
Temp25°C (ISA +13)
Dew Point11°C (42% RH)
QNH1005 hPa
Density Alt3,419 ft
Elevation1,476 ft
Report Wrong Elevation
Raw Report
METAR SANT 181500Z 00000KT 7000 NSC 25/11 Q1005=

Extra information for SANT:More info

Metar Taf Metar & Taf Last 4 Metars F.Rules Stats Wind Profile Meteogram Temp Stats Airport Information Weather charts Add Link Nearby VenuesMetar ALERT Operation Metar Decoded Social comments